Karluk, AK (99608)

5:11 PM AKST on November 21, 2014 (GMT -0900)
Akhiok AP, Akhiok, AK | Change Station
CLOSE
Current Station
Airport
Location: Akhiok AP, Akhiok, AK,
Elevation: 43 ft
Nearby Weather Stations

Elev 43 ft 56.94 °N, 154.18 °W | Updated 15 minutes ago

Mostly Cloudy
Mostly Cloudy
42 °F
Feels Like 33 °F
N
20
Wind Variable Wind from ESE
Gusts 26 mph

Today
High -- | Low -- °F
--% Chance of Precip.
Yesterday
High -- | Low -- °F
Precip. -- in
9:15 AM 4:51 PM
Waning Crescent, 0% visible
Pressure 28.73 in
Visibility 10.0 miles
Clouds Mostly Cloudy 1900 ft
Mostly Cloudy 2900 ft
Mostly Cloudy 4000 ft
Windchill 33 °F
Dew Point 37 °F
Humidity 82%
Rainfall 0.19 in
Snow Depth Not available.
UV 0 out of 12
Pollen Not available.
Air Quality Not available.
Flu Activity Not available.
METAR PAKH 220156Z AUTO 12017G23KT 10SM BKN019 BKN029 BKN040 06/03 A2871 RMK AO2 TSNO T00550027 BKN V SCT SLP727 $

More Conditions Fewer Conditions

Pressure 28.73 in
Visibility 10.0 miles
Clouds Mostly Cloudy 1900 ft
Mostly Cloudy 2900 ft
Mostly Cloudy 4000 ft
Windchill 33 °F
Dew Point 37 °F
Humidity 82%
Rainfall 0.19 in
Snow Depth Not available.
UV 0 out of 12
Pollen Not available.
Air Quality Not available.
Flu Activity Not available.
METAR PAKH 220156Z AUTO 12017G23KT 10SM BKN019 BKN029 BKN040 06/03 A2871 RMK AO2 TSNO T00550027 BKN V SCT SLP727 $

More Conditions Fewer Conditions

10-Day Weather Forecast

Almanac

Astronomy

Nov. 21, 2014 Rise Set
Actual Time
Civil Twilight
Nautical Twilight
Astronomical Twilight
Moon
Length of Visible Light
Length of Day
Tomorrow will be .
, % of the Moon is Illuminated

Today's Extremes

State Highs State Lows

Community

WunderPhotos

Upload Photos

1,772,759 photos uploaded!

WunderBlogs® & News

Nearby

Air Quality

  Air Quality AQ Index Pollutant
Not available.

Snow Depth

Station Depth Elevation

Earthquake Activity

City Distance Mag. Time & Date
Minimum magnitude displayed is 2.5.

Coastal Water Temperatures

Place Temperature

Nearby Weather Stations